sensor_id;sensor_type;location;lat;lon;timestamp;pressure;altitude;pressure_sealevel;temperature;humidity
37892;BME280;45797;47.466;9.486;2022-12-29T00:03:56;95665.09;;;9.08;55.59
37892;BME280;45797;47.466;9.486;2022-12-29T00:08:58;95654.66;;;9.08;56.17
37892;BME280;45797;47.466;9.486;2022-12-29T00:13:58;95643.25;;;9.09;56.08
37892;BME280;45797;47.466;9.486;2022-12-29T00:19:17;95638.03;;;9.09;55.64
37892;BME280;45797;47.466;9.486;2022-12-29T00:24:38;95628.94;;;9.15;55.20
37892;BME280;45797;47.466;9.486;2022-12-29T00:29:55;95624.44;;;9.17;55.55
37892;BME280;45797;47.466;9.486;2022-12-29T00:40:25;95609.38;;;9.33;54.84
37892;BME280;45797;47.466;9.486;2022-12-29T00:45:46;95610.34;;;9.32;55.46
37892;BME280;45797;47.466;9.486;2022-12-29T00:50:46;95610.22;;;9.34;55.15
37892;BME280;45797;47.466;9.486;2022-12-29T00:55:48;95617.84;;;9.37;55.47
37892;BME280;45797;47.466;9.486;2022-12-29T01:00:51;95622.88;;;9.40;54.87
37892;BME280;45797;47.466;9.486;2022-12-29T01:06:00;95620.38;;;9.38;54.52
37892;BME280;45797;47.466;9.486;2022-12-29T01:11:05;95619.41;;;9.39;54.92
37892;BME280;45797;47.466;9.486;2022-12-29T01:16:23;95628.09;;;9.40;54.71
37892;BME280;45797;47.466;9.486;2022-12-29T01:21:24;95632.03;;;9.45;54.80
37892;BME280;45797;47.466;9.486;2022-12-29T01:26:26;95619.59;;;9.49;54.87
37892;BME280;45797;47.466;9.486;2022-12-29T01:31:28;95628.78;;;9.55;54.34
37892;BME280;45797;47.466;9.486;2022-12-29T01:36:28;95620.75;;;9.58;54.66
37892;BME280;45797;47.466;9.486;2022-12-29T01:41:30;95624.28;;;9.57;54.66
37892;BME280;45797;47.466;9.486;2022-12-29T01:46:48;95634.34;;;9.50;54.52
37892;BME280;45797;47.466;9.486;2022-12-29T01:51:57;95627.94;;;9.54;54.90
37892;BME280;45797;47.466;9.486;2022-12-29T01:57:03;95609.44;;;9.57;54.63
37892;BME280;45797;47.466;9.486;2022-12-29T02:02:05;95612.91;;;9.58;54.60
37892;BME280;45797;47.466;9.486;2022-12-29T02:12:28;95616.34;;;9.58;54.70
37892;BME280;45797;47.466;9.486;2022-12-29T02:18:00;95609.63;;;9.54;54.99
37892;BME280;45797;47.466;9.486;2022-12-29T02:40:11;95623.97;;;9.61;54.50
37892;BME280;45797;47.466;9.486;2022-12-29T02:46:12;95630.84;;;9.62;54.54
37892;BME280;45797;47.466;9.486;2022-12-29T02:51:15;95618.78;;;9.72;54.32
37892;BME280;45797;47.466;9.486;2022-12-29T02:56:18;95610.00;;;9.73;54.24
37892;BME280;45797;47.466;9.486;2022-12-29T03:06:53;95598.38;;;9.78;54.22
37892;BME280;45797;47.466;9.486;2022-12-29T03:17:50;95619.84;;;9.70;55.18
37892;BME280;45797;47.466;9.486;2022-12-29T03:23:01;95632.22;;;9.68;54.96
37892;BME280;45797;47.466;9.486;2022-12-29T03:28:32;95641.31;;;9.62;54.98
37892;BME280;45797;47.466;9.486;2022-12-29T03:33:38;95654.38;;;9.62;54.75
37892;BME280;45797;47.466;9.486;2022-12-29T03:39:09;95653.59;;;9.49;55.01
37892;BME280;45797;47.466;9.486;2022-12-29T03:44:13;95628.78;;;9.55;55.40
37892;BME280;45797;47.466;9.486;2022-12-29T03:49:13;95634.34;;;9.50;55.27
37892;BME280;45797;47.466;9.486;2022-12-29T03:54:15;95623.25;;;9.59;54.70
37892;BME280;45797;47.466;9.486;2022-12-29T03:59:17;95628.84;;;9.66;54.79
37892;BME280;45797;47.466;9.486;2022-12-29T04:04:18;95617.97;;;9.72;54.41
37892;BME280;45797;47.466;9.486;2022-12-29T04:09:25;95624.31;;;9.81;54.52
37892;BME280;45797;47.466;9.486;2022-12-29T04:14:41;95621.34;;;9.85;54.15
37892;BME280;45797;47.466;9.486;2022-12-29T04:19:44;95623.78;;;9.88;54.24
37892;BME280;45797;47.466;9.486;2022-12-29T04:24:46;95598.75;;;9.84;54.59
37892;BME280;45797;47.466;9.486;2022-12-29T04:29:47;95613.41;;;9.87;54.41
37892;BME280;45797;47.466;9.486;2022-12-29T04:35:15;95609.03;;;9.87;54.23
37892;BME280;45797;47.466;9.486;2022-12-29T04:40:16;95614.38;;;9.86;53.81
37892;BME280;45797;47.466;9.486;2022-12-29T04:45:17;95604.63;;;9.88;54.02
37892;BME280;45797;47.466;9.486;2022-12-29T04:50:43;95620.47;;;9.73;54.58
37892;BME280;45797;47.466;9.486;2022-12-29T04:55:51;95610.22;;;9.70;54.19
37892;BME280;45797;47.466;9.486;2022-12-29T05:00:51;95605.31;;;9.66;54.66
37892;BME280;45797;47.466;9.486;2022-12-29T05:06:06;95601.88;;;9.65;54.46
37892;BME280;45797;47.466;9.486;2022-12-29T05:11:14;95594.13;;;9.64;54.64
37892;BME280;45797;47.466;9.486;2022-12-29T05:16:24;95580.56;;;9.59;54.76
37892;BME280;45797;47.466;9.486;2022-12-29T05:21:27;95579.00;;;9.56;55.27
37892;BME280;45797;47.466;9.486;2022-12-29T05:26:29;95566.38;;;9.50;54.89
37892;BME280;45797;47.466;9.486;2022-12-29T05:31:47;95580.59;;;9.46;55.48
37892;BME280;45797;47.466;9.486;2022-12-29T05:36:51;95581.03;;;9.40;55.27
37892;BME280;45797;47.466;9.486;2022-12-29T05:42:08;95600.94;;;9.30;55.55
37892;BME280;45797;47.466;9.486;2022-12-29T05:47:19;95590.91;;;9.24;55.40
37892;BME280;45797;47.466;9.486;2022-12-29T05:52:40;95581.28;;;9.24;55.32
37892;BME280;45797;47.466;9.486;2022-12-29T05:57:41;95585.38;;;9.15;55.54
37892;BME280;45797;47.466;9.486;2022-12-29T06:02:48;95566.66;;;9.09;55.60
37892;BME280;45797;47.466;9.486;2022-12-29T06:07:50;95576.50;;;9.05;55.81
37892;BME280;45797;47.466;9.486;2022-12-29T06:12:55;95578.28;;;9.05;55.58
37892;BME280;45797;47.466;9.486;2022-12-29T06:17:58;95586.34;;;9.02;55.08
37892;BME280;45797;47.466;9.486;2022-12-29T06:22:59;95582.69;;;9.04;55.03
37892;BME280;45797;47.466;9.486;2022-12-29T06:27:59;95593.84;;;9.06;55.37
37892;BME280;45797;47.466;9.486;2022-12-29T06:33:00;95602.41;;;9.08;54.87
37892;BME280;45797;47.466;9.486;2022-12-29T06:38:08;95613.91;;;9.06;55.17
37892;BME280;45797;47.466;9.486;2022-12-29T06:43:08;95617.47;;;9.05;55.02
37892;BME280;45797;47.466;9.486;2022-12-29T06:48:41;95629.06;;;9.13;54.87
37892;BME280;45797;47.466;9.486;2022-12-29T06:53:51;95635.31;;;9.24;54.46
37892;BME280;45797;47.466;9.486;2022-12-29T06:59:00;95620.56;;;9.35;54.22
37892;BME280;45797;47.466;9.486;2022-12-29T07:04:02;95626.81;;;9.45;54.19
37892;BME280;45797;47.466;9.486;2022-12-29T07:09:03;95637.78;;;9.51;53.93
37892;BME280;45797;47.466;9.486;2022-12-29T07:14:13;95632.09;;;9.57;53.90
37892;BME280;45797;47.466;9.486;2022-12-29T07:19:16;95635.53;;;9.70;53.57
37892;BME280;45797;47.466;9.486;2022-12-29T07:24:16;95634.91;;;9.79;53.32
37892;BME280;45797;47.466;9.486;2022-12-29T07:29:21;95643.41;;;9.94;53.07
37892;BME280;45797;47.466;9.486;2022-12-29T07:34:21;95647.78;;;10.06;53.22
37892;BME280;45797;47.466;9.486;2022-12-29T07:39:26;95653.56;;;10.22;52.98
37892;BME280;45797;47.466;9.486;2022-12-29T07:44:27;95648.50;;;10.32;53.35
37892;BME280;45797;47.466;9.486;2022-12-29T07:49:29;95647.72;;;10.43;53.17
37892;BME280;45797;47.466;9.486;2022-12-29T07:54:31;95644.91;;;10.57;52.90
37892;BME280;45797;47.466;9.486;2022-12-29T07:59:32;95655.28;;;10.70;52.53
37892;BME280;45797;47.466;9.486;2022-12-29T08:04:32;95651.19;;;10.90;52.08
37892;BME280;45797;47.466;9.486;2022-12-29T08:09:41;95654.81;;;11.11;51.35
37892;BME280;45797;47.466;9.486;2022-12-29T08:14:48;95650.66;;;11.31;51.12
37892;BME280;45797;47.466;9.486;2022-12-29T08:19:49;95633.00;;;11.44;50.74
37892;BME280;45797;47.466;9.486;2022-12-29T08:24:51;95615.81;;;11.62;50.59
37892;BME280;45797;47.466;9.486;2022-12-29T08:29:58;95624.28;;;11.77;50.10
37892;BME280;45797;47.466;9.486;2022-12-29T08:35:01;95624.16;;;11.90;49.77
37892;BME280;45797;47.466;9.486;2022-12-29T08:40:03;95632.34;;;12.08;49.10
37892;BME280;45797;47.466;9.486;2022-12-29T08:45:34;95622.28;;;12.24;48.75
37892;BME280;45797;47.466;9.486;2022-12-29T08:50:34;95609.19;;;12.45;48.19
37892;BME280;45797;47.466;9.486;2022-12-29T08:55:46;95614.00;;;12.61;47.60
37892;BME280;45797;47.466;9.486;2022-12-29T09:01:00;95601.22;;;12.77;47.62
37892;BME280;45797;47.466;9.486;2022-12-29T09:06:01;95609.50;;;12.93;47.42
37892;BME280;45797;47.466;9.486;2022-12-29T09:11:40;95626.63;;;13.08;47.33
37892;BME280;45797;47.466;9.486;2022-12-29T09:16:35;95632.47;;;12.91;47.21
37892;BME280;45797;47.466;9.486;2022-12-29T09:21:47;95655.66;;;12.86;47.40
37892;BME280;45797;47.466;9.486;2022-12-29T09:26:48;95662.50;;;12.77;47.93
37892;BME280;45797;47.466;9.486;2022-12-29T09:31:51;95662.34;;;12.90;47.53
37892;BME280;45797;47.466;9.486;2022-12-29T09:36:52;95675.59;;;12.88;47.62
37892;BME280;45797;47.466;9.486;2022-12-29T09:47:17;95667.31;;;13.14;47.49
37892;BME280;45797;47.466;9.486;2022-12-29T09:52:24;95666.31;;;13.26;47.39
37892;BME280;45797;47.466;9.486;2022-12-29T09:57:38;95650.66;;;13.25;47.29
37892;BME280;45797;47.466;9.486;2022-12-29T10:02:46;95649.38;;;13.40;47.21
37892;BME280;45797;47.466;9.486;2022-12-29T10:08:03;95658.63;;;13.65;46.84
37892;BME280;45797;47.466;9.486;2022-12-29T10:13:34;95658.69;;;13.84;46.83
37892;BME280;45797;47.466;9.486;2022-12-29T10:18:54;95650.28;;;14.10;46.95
37892;BME280;45797;47.466;9.486;2022-12-29T10:24:15;95633.03;;;14.46;46.38
37892;BME280;45797;47.466;9.486;2022-12-29T10:29:20;95637.47;;;14.74;45.70
37892;BME280;45797;47.466;9.486;2022-12-29T10:34:48;95632.97;;;15.04;45.26
37892;BME280;45797;47.466;9.486;2022-12-29T10:39:53;95624.34;;;15.21;45.08
37892;BME280;45797;47.466;9.486;2022-12-29T10:44:58;95617.03;;;15.42;44.80
37892;BME280;45797;47.466;9.486;2022-12-29T10:50:01;95604.50;;;15.64;44.72
37892;BME280;45797;47.466;9.486;2022-12-29T10:55:17;95593.59;;;15.77;44.82
37892;BME280;45797;47.466;9.486;2022-12-29T11:11:02;95582.97;;;15.86;45.00
37892;BME280;45797;47.466;9.486;2022-12-29T11:16:13;95572.91;;;15.90;44.66
37892;BME280;45797;47.466;9.486;2022-12-29T11:27:56;95551.13;;;16.41;43.99
37892;BME280;45797;47.466;9.486;2022-12-29T11:32:58;95547.44;;;16.70;43.41
37892;BME280;45797;47.466;9.486;2022-12-29T11:38:01;95542.78;;;16.90;42.81
37892;BME280;45797;47.466;9.486;2022-12-29T11:48:40;95548.13;;;16.98;43.07
37892;BME280;45797;47.466;9.486;2022-12-29T11:53:51;95547.06;;;16.91;43.23
37892;BME280;45797;47.466;9.486;2022-12-29T11:58:55;95546.19;;;16.82;43.19
37892;BME280;45797;47.466;9.486;2022-12-29T12:04:16;95537.19;;;16.75;43.52
37892;BME280;45797;47.466;9.486;2022-12-29T12:09:26;95521.88;;;16.78;43.55
37892;BME280;45797;47.466;9.486;2022-12-29T12:14:41;95527.66;;;16.64;44.07
37892;BME280;45797;47.466;9.486;2022-12-29T12:20:03;95522.56;;;16.45;44.43
37892;BME280;45797;47.466;9.486;2022-12-29T12:25:40;95515.03;;;16.32;44.46
37892;BME280;45797;47.466;9.486;2022-12-29T12:30:54;95505.06;;;16.26;44.60
37892;BME280;45797;47.466;9.486;2022-12-29T12:36:42;95528.03;;;16.08;44.83
37892;BME280;45797;47.466;9.486;2022-12-29T12:41:53;95532.47;;;15.89;45.06
37892;BME280;45797;47.466;9.486;2022-12-29T13:03:18;95528.06;;;15.25;46.14
37892;BME280;45797;47.466;9.486;2022-12-29T13:40:55;95494.63;;;14.89;47.07
37892;BME280;45797;47.466;9.486;2022-12-29T13:46:05;95495.59;;;14.88;47.34
37892;BME280;45797;47.466;9.486;2022-12-29T13:51:09;95488.31;;;14.72;47.56
37892;BME280;45797;47.466;9.486;2022-12-29T14:01:48;95486.25;;;14.56;47.89
37892;BME280;45797;47.466;9.486;2022-12-29T14:07:05;95480.44;;;14.43;48.14
37892;BME280;45797;47.466;9.486;2022-12-29T14:18:10;95476.00;;;14.34;48.67
37892;BME280;45797;47.466;9.486;2022-12-29T14:23:16;95476.28;;;14.30;48.93
37892;BME280;45797;47.466;9.486;2022-12-29T14:28:27;95477.97;;;14.22;49.10
37892;BME280;45797;47.466;9.486;2022-12-29T14:33:32;95495.03;;;14.08;49.49
37892;BME280;45797;47.466;9.486;2022-12-29T14:38:32;95529.41;;;13.87;49.94
37892;BME280;45797;47.466;9.486;2022-12-29T14:43:38;95525.94;;;13.87;49.88
37892;BME280;45797;47.466;9.486;2022-12-29T14:48:43;95529.53;;;13.86;50.13
37892;BME280;45797;47.466;9.486;2022-12-29T14:53:50;95523.59;;;13.84;50.00
37892;BME280;45797;47.466;9.486;2022-12-29T14:58:54;95511.50;;;13.81;50.13
37892;BME280;45797;47.466;9.486;2022-12-29T15:04:22;95528.69;;;13.76;50.10
37892;BME280;45797;47.466;9.486;2022-12-29T15:09:31;95535.78;;;13.75;49.97
37892;BME280;45797;47.466;9.486;2022-12-29T15:14:39;95528.25;;;13.70;50.00
37892;BME280;45797;47.466;9.486;2022-12-29T15:20:22;95520.06;;;13.64;50.13
37892;BME280;45797;47.466;9.486;2022-12-29T15:25:28;95514.78;;;13.54;50.59
37892;BME280;45797;47.466;9.486;2022-12-29T15:31:02;95531.66;;;13.42;50.52
37892;BME280;45797;47.466;9.486;2022-12-29T15:36:21;95536.50;;;13.37;50.38
37892;BME280;45797;47.466;9.486;2022-12-29T15:41:43;95532.19;;;13.36;50.40
37892;BME280;45797;47.466;9.486;2022-12-29T15:47:29;95543.78;;;13.24;50.33
37892;BME280;45797;47.466;9.486;2022-12-29T15:52:31;95540.78;;;13.28;49.98
37892;BME280;45797;47.466;9.486;2022-12-29T16:03:32;95563.75;;;13.36;49.49
37892;BME280;45797;47.466;9.486;2022-12-29T16:08:38;95560.88;;;13.39;49.28
37892;BME280;45797;47.466;9.486;2022-12-29T16:13:40;95554.94;;;13.37;49.24
37892;BME280;45797;47.466;9.486;2022-12-29T16:18:42;95551.34;;;13.38;49.08
37892;BME280;45797;47.466;9.486;2022-12-29T16:23:55;95562.28;;;13.43;48.92
37892;BME280;45797;47.466;9.486;2022-12-29T16:29:05;95575.31;;;13.54;48.49
37892;BME280;45797;47.466;9.486;2022-12-29T16:34:31;95577.00;;;13.55;48.29
37892;BME280;45797;47.466;9.486;2022-12-29T16:39:39;95583.50;;;13.61;48.03
37892;BME280;45797;47.466;9.486;2022-12-29T16:50:21;95607.03;;;13.53;48.60
37892;BME280;45797;47.466;9.486;2022-12-29T16:55:24;95606.75;;;13.46;48.32
37892;BME280;45797;47.466;9.486;2022-12-29T17:00:36;95615.00;;;13.32;48.40
37892;BME280;45797;47.466;9.486;2022-12-29T17:05:38;95605.38;;;13.21;49.15
37892;BME280;45797;47.466;9.486;2022-12-29T17:10:38;95588.13;;;13.07;49.50
37892;BME280;45797;47.466;9.486;2022-12-29T17:15:58;95584.59;;;12.97;49.91
37892;BME280;45797;47.466;9.486;2022-12-29T17:21:05;95570.56;;;12.87;50.37
37892;BME280;45797;47.466;9.486;2022-12-29T17:26:08;95571.13;;;12.81;50.80
37892;BME280;45797;47.466;9.486;2022-12-29T17:31:10;95556.00;;;12.73;50.89
37892;BME280;45797;47.466;9.486;2022-12-29T17:36:10;95565.94;;;12.70;51.11
37892;BME280;45797;47.466;9.486;2022-12-29T17:41:13;95575.72;;;12.68;51.76
37892;BME280;45797;47.466;9.486;2022-12-29T17:46:14;95580.78;;;12.59;52.18
37892;BME280;45797;47.466;9.486;2022-12-29T17:51:26;95584.63;;;12.55;52.04
37892;BME280;45797;47.466;9.486;2022-12-29T17:56:26;95582.72;;;12.57;52.15
37892;BME280;45797;47.466;9.486;2022-12-29T18:01:28;95596.44;;;12.61;52.21
37892;BME280;45797;47.466;9.486;2022-12-29T18:06:29;95595.34;;;12.64;52.50
37892;BME280;45797;47.466;9.486;2022-12-29T18:11:31;95596.19;;;12.64;52.72
37892;BME280;45797;47.466;9.486;2022-12-29T18:16:32;95594.66;;;12.62;52.89
37892;BME280;45797;47.466;9.486;2022-12-29T18:21:33;95607.06;;;12.59;53.17
37892;BME280;45797;47.466;9.486;2022-12-29T18:26:34;95607.59;;;12.53;53.06
37892;BME280;45797;47.466;9.486;2022-12-29T18:31:44;95606.69;;;12.43;53.46
37892;BME280;45797;47.466;9.486;2022-12-29T18:36:45;95603.59;;;12.38;53.51
37892;BME280;45797;47.466;9.486;2022-12-29T18:41:56;95594.53;;;12.31;53.72
37892;BME280;45797;47.466;9.486;2022-12-29T18:46:58;95584.75;;;12.33;54.01
37892;BME280;45797;47.466;9.486;2022-12-29T18:52:16;95588.44;;;12.30;54.15
37892;BME280;45797;47.466;9.486;2022-12-29T18:57:31;95591.69;;;12.34;53.83
37892;BME280;45797;47.466;9.486;2022-12-29T19:02:50;95580.91;;;12.37;53.90
37892;BME280;45797;47.466;9.486;2022-12-29T19:07:53;95609.19;;;12.45;54.13
37892;BME280;45797;47.466;9.486;2022-12-29T19:12:54;95606.91;;;12.40;54.14
37892;BME280;45797;47.466;9.486;2022-12-29T19:17:57;95605.25;;;12.39;54.66
37892;BME280;45797;47.466;9.486;2022-12-29T19:23:11;95600.75;;;12.30;54.77
37892;BME280;45797;47.466;9.486;2022-12-29T19:28:29;95607.47;;;12.23;54.52
37892;BME280;45797;47.466;9.486;2022-12-29T19:33:34;95620.00;;;12.19;54.97
37892;BME280;45797;47.466;9.486;2022-12-29T19:38:36;95614.66;;;12.10;55.37
37892;BME280;45797;47.466;9.486;2022-12-29T19:43:42;95600.13;;;12.06;55.37
37892;BME280;45797;47.466;9.486;2022-12-29T19:48:45;95598.22;;;12.08;55.29
37892;BME280;45797;47.466;9.486;2022-12-29T19:53:46;95609.81;;;12.05;55.43
37892;BME280;45797;47.466;9.486;2022-12-29T19:58:47;95610.88;;;12.02;55.33
37892;BME280;45797;47.466;9.486;2022-12-29T20:03:54;95605.75;;;12.01;55.56
37892;BME280;45797;47.466;9.486;2022-12-29T20:08:56;95614.72;;;11.98;55.63
37892;BME280;45797;47.466;9.486;2022-12-29T20:14:02;95605.16;;;11.97;55.77
37892;BME280;45797;47.466;9.486;2022-12-29T20:19:02;95608.75;;;11.96;55.85
37892;BME280;45797;47.466;9.486;2022-12-29T20:24:03;95618.28;;;11.97;55.69
37892;BME280;45797;47.466;9.486;2022-12-29T20:29:12;95613.75;;;11.99;55.70
37892;BME280;45797;47.466;9.486;2022-12-29T20:34:23;95609.19;;;12.01;55.82
37892;BME280;45797;47.466;9.486;2022-12-29T20:39:30;95624.72;;;12.05;56.09
37892;BME280;45797;47.466;9.486;2022-12-29T20:44:36;95626.25;;;12.07;56.05
37892;BME280;45797;47.466;9.486;2022-12-29T20:49:44;95626.13;;;12.09;56.41
37892;BME280;45797;47.466;9.486;2022-12-29T20:54:45;95634.72;;;12.11;56.31
37892;BME280;45797;47.466;9.486;2022-12-29T20:59:45;95626.13;;;12.09;56.28
37892;BME280;45797;47.466;9.486;2022-12-29T21:04:46;95619.91;;;12.10;56.73
37892;BME280;45797;47.466;9.486;2022-12-29T21:09:59;95628.63;;;12.10;56.58
37892;BME280;45797;47.466;9.486;2022-12-29T21:15:06;95623.25;;;12.12;56.87
37892;BME280;45797;47.466;9.486;2022-12-29T21:20:08;95622.28;;;12.13;57.06
37892;BME280;45797;47.466;9.486;2022-12-29T21:25:08;95626.84;;;12.11;56.99
37892;BME280;45797;47.466;9.486;2022-12-29T21:30:11;95640.66;;;12.13;57.19
37892;BME280;45797;47.466;9.486;2022-12-29T21:35:21;95626.97;;;12.09;57.33
37892;BME280;45797;47.466;9.486;2022-12-29T21:40:21;95636.63;;;12.09;57.38
37892;BME280;45797;47.466;9.486;2022-12-29T21:45:31;95656.94;;;12.07;57.41
37892;BME280;45797;47.466;9.486;2022-12-29T21:50:42;95657.75;;;12.07;57.00
37892;BME280;45797;47.466;9.486;2022-12-29T21:56:34;95676.28;;;12.06;57.23
37892;BME280;45797;47.466;9.486;2022-12-29T22:01:38;95675.06;;;12.10;57.97
37892;BME280;45797;47.466;9.486;2022-12-29T22:07:07;95683.91;;;12.09;57.47
37892;BME280;45797;47.466;9.486;2022-12-29T22:12:47;95681.53;;;12.06;57.63
37892;BME280;45797;47.466;9.486;2022-12-29T22:18:19;95677.94;;;12.07;57.84
37892;BME280;45797;47.466;9.486;2022-12-29T22:23:21;95676.59;;;12.12;57.79
37892;BME280;45797;47.466;9.486;2022-12-29T22:28:26;95675.53;;;12.15;58.12
37892;BME280;45797;47.466;9.486;2022-12-29T22:33:26;95671.13;;;12.15;57.90
37892;BME280;45797;47.466;9.486;2022-12-29T22:38:26;95666.69;;;12.16;58.27
37892;BME280;45797;47.466;9.486;2022-12-29T22:43:32;95683.16;;;12.18;57.95
37892;BME280;45797;47.466;9.486;2022-12-29T22:48:33;95715.97;;;12.12;58.39
37892;BME280;45797;47.466;9.486;2022-12-29T22:53:43;95723.53;;;12.06;58.43
37892;BME280;45797;47.466;9.486;2022-12-29T22:58:46;95740.13;;;11.95;58.97
37892;BME280;45797;47.466;9.486;2022-12-29T23:03:50;95739.03;;;11.75;59.70
37892;BME280;45797;47.466;9.486;2022-12-29T23:09:03;95750.81;;;11.69;59.62
37892;BME280;45797;47.466;9.486;2022-12-29T23:14:17;95756.66;;;11.62;60.06
37892;BME280;45797;47.466;9.486;2022-12-29T23:19:18;95770.97;;;11.58;60.39
37892;BME280;45797;47.466;9.486;2022-12-29T23:24:19;95777.63;;;11.51;60.95
37892;BME280;45797;47.466;9.486;2022-12-29T23:29:20;95786.50;;;11.37;60.97
37892;BME280;45797;47.466;9.486;2022-12-29T23:34:22;95785.66;;;11.25;61.52
37892;BME280;45797;47.466;9.486;2022-12-29T23:39:24;95806.13;;;11.09;61.59
37892;BME280;45797;47.466;9.486;2022-12-29T23:44:33;95791.25;;;10.85;62.29
37892;BME280;45797;47.466;9.486;2022-12-29T23:49:49;95788.06;;;10.69;62.38
37892;BME280;45797;47.466;9.486;2022-12-29T23:54:58;95796.69;;;10.58;62.82
37892;BME280;45797;47.466;9.486;2022-12-29T23:59:58;95799.97;;;10.49;62.99
